createdAt,value
2017-03-17T00:00:12.359Z,11.7
2017-03-17T00:01:22.376Z,11.68
2017-03-17T00:02:32.436Z,11.68
2017-03-17T00:03:42.803Z,11.57
2017-03-17T00:04:53.142Z,11.56
2017-03-17T00:06:03.490Z,11.46
2017-03-17T00:07:13.833Z,11.51
2017-03-17T00:08:23.537Z,11.43
2017-03-17T00:09:33.869Z,11.45
2017-03-17T00:10:44.199Z,11.42
2017-03-17T00:11:54.241Z,11.39
2017-03-17T00:13:04.607Z,11.41
2017-03-17T00:14:14.950Z,11.31
2017-03-17T00:15:25.287Z,11.3
2017-03-17T00:16:35.647Z,11.38
2017-03-17T00:17:45.976Z,11.28
2017-03-17T00:18:56.310Z,11.28
2017-03-17T00:20:06.654Z,11.35
2017-03-17T00:21:16.986Z,11.3
2017-03-17T00:22:27.011Z,11.24
2017-03-17T00:23:37.373Z,11.28
2017-03-17T00:24:47.421Z,11.31
2017-03-17T00:25:57.752Z,11.39
2017-03-17T00:27:07.769Z,11.41
2017-03-17T00:28:17.844Z,11.35
2017-03-17T00:29:28.173Z,11.24
2017-03-17T00:30:38.517Z,11.21
2017-03-17T00:31:48.865Z,11.26
2017-03-17T00:32:59.181Z,11.23
2017-03-17T00:34:09.530Z,11.2
2017-03-17T00:35:19.871Z,11.2
2017-03-17T00:36:29.894Z,11.24
2017-03-17T00:37:40.248Z,11.21
2017-03-17T00:38:50.274Z,11.21
2017-03-17T00:40:00.306Z,11.21
2017-03-17T00:41:10.628Z,11.2
2017-03-17T00:42:20.961Z,11.18
2017-03-17T00:43:31.281Z,11.27
2017-03-17T00:44:41.633Z,11.15
2017-03-17T00:45:51.961Z,11.18
2017-03-17T00:47:01.994Z,11.3
2017-03-17T00:48:12.018Z,11.18
2017-03-17T00:49:22.348Z,11.18
2017-03-17T00:50:32.707Z,11.13
2017-03-17T00:51:42.757Z,11.12
2017-03-17T00:52:53.097Z,11.03
2017-03-17T00:54:03.115Z,11.05
2017-03-17T00:55:13.451Z,11.08
2017-03-17T00:56:23.795Z,11.03
2017-03-17T00:57:33.817Z,11.09
2017-03-17T00:58:44.154Z,11.09
2017-03-17T00:59:54.497Z,11
2017-03-17T01:01:04.216Z,10.97
2017-03-17T01:02:14.556Z,10.94
2017-03-17T01:03:24.909Z,10.97
2017-03-17T01:04:34.924Z,10.87
2017-03-17T01:05:45.269Z,10.85
2017-03-17T01:06:55.604Z,10.87
2017-03-17T01:08:05.939Z,10.88
2017-03-17T01:09:16.279Z,10.85
2017-03-17T01:10:26.617Z,10.76
2017-03-17T01:11:36.329Z,10.73
2017-03-17T01:12:46.654Z,10.79
2017-03-17T01:13:56.678Z,10.77
2017-03-17T01:15:07.013Z,10.84
2017-03-17T01:16:17.338Z,10.8
2017-03-17T01:17:27.665Z,10.75
2017-03-17T01:18:37.990Z,10.79
2017-03-17T01:19:48.339Z,10.8
2017-03-17T01:20:58.672Z,10.75
2017-03-17T01:22:08.680Z,10.73
2017-03-17T01:23:19.018Z,10.79
2017-03-17T01:24:29.362Z,10.7
2017-03-17T01:25:39.400Z,10.66
2017-03-17T01:26:49.745Z,10.66
2017-03-17T01:28:00.073Z,10.66
2017-03-17T01:29:10.106Z,10.65
2017-03-17T01:30:20.441Z,10.66
2017-03-17T01:31:30.770Z,10.63
2017-03-17T01:32:40.788Z,10.58
2017-03-17T01:33:50.807Z,10.61
2017-03-17T01:35:01.157Z,10.54
2017-03-17T01:36:11.483Z,10.52
2017-03-17T01:37:21.811Z,10.54
2017-03-17T01:38:31.845Z,10.54
2017-03-17T01:39:42.209Z,10.49
2017-03-17T01:40:52.231Z,10.44
2017-03-17T01:42:02.244Z,10.44
2017-03-17T01:43:12.605Z,10.46
2017-03-17T01:44:22.940Z,10.38
2017-03-17T01:45:33.250Z,10.35
2017-03-17T01:46:43.573Z,10.31
2017-03-17T01:47:53.917Z,10.29
2017-03-17T01:49:03.929Z,10.32
2017-03-17T01:50:14.263Z,10.2
2017-03-17T01:51:24.296Z,10.14
2017-03-17T01:52:34.318Z,10.14
2017-03-17T01:53:44.363Z,10.1
2017-03-17T01:54:54.700Z,10.07
2017-03-17T01:56:04.722Z,10.1
2017-03-17T01:57:15.059Z,9.95
2017-03-17T01:58:25.386Z,9.96
2017-03-17T01:59:35.434Z,9.98
2017-03-17T02:00:45.771Z,9.88
2017-03-17T02:01:55.808Z,9.93
2017-03-17T02:03:05.820Z,9.89
2017-03-17T02:04:16.154Z,9.84
2017-03-17T02:05:26.488Z,9.82
2017-03-17T02:06:36.798Z,9.89
2017-03-17T02:07:47.126Z,9.8
2017-03-17T02:08:57.144Z,9.72
2017-03-17T02:10:06.884Z,9.64
2017-03-17T02:11:17.241Z,9.71
2017-03-17T02:12:27.583Z,9.63
2017-03-17T02:13:37.614Z,9.52
2017-03-17T02:14:47.325Z,9.55
2017-03-17T02:15:57.333Z,9.64
2017-03-17T02:17:07.343Z,9.56
2017-03-17T02:18:17.671Z,9.6
2017-03-17T02:19:27.994Z,9.62
2017-03-17T02:20:38.329Z,9.53
2017-03-17T02:21:48.670Z,9.6
2017-03-17T02:22:59.003Z,9.56
2017-03-17T02:24:09.338Z,9.6
2017-03-17T02:25:19.664Z,9.59
2017-03-17T02:26:30.008Z,9.53
2017-03-17T02:27:40.325Z,9.52
2017-03-17T02:28:50.356Z,9.44
2017-03-17T02:30:00.688Z,9.38
2017-03-17T02:31:10.720Z,9.48
2017-03-17T02:32:20.421Z,9.5
2017-03-17T02:33:30.454Z,9.44
2017-03-17T02:34:40.779Z,9.42
2017-03-17T02:35:51.108Z,9.44
2017-03-17T02:37:01.443Z,9.41
2017-03-17T02:38:11.765Z,9.39
2017-03-17T02:39:21.793Z,9.41
2017-03-17T02:40:32.162Z,9.29
2017-03-17T02:41:42.485Z,9.35
2017-03-17T02:42:52.504Z,9.26
2017-03-17T02:44:02.844Z,9.26
2017-03-17T02:45:12.870Z,9.17
2017-03-17T02:46:23.186Z,9.21
2017-03-17T02:47:32.879Z,9.19
2017-03-17T02:48:43.217Z,9.17
2017-03-17T02:49:53.241Z,9.14
2017-03-17T02:51:03.615Z,9.14
2017-03-17T02:52:13.936Z,9.11
2017-03-17T02:53:24.259Z,8.98
2017-03-17T02:54:34.606Z,9.03
2017-03-17T02:55:44.951Z,9.03
2017-03-17T02:56:55.273Z,8.94
2017-03-17T02:58:05.599Z,8.92
2017-03-17T02:59:15.935Z,8.95
2017-03-17T03:00:26.271Z,8.97
2017-03-17T03:01:36.836Z,9
2017-03-17T03:32:41.195Z,5
2017-03-17T03:33:51.522Z,4.95
2017-03-17T03:35:01.234Z,4.95
2017-03-17T03:36:11.556Z,4.92
2017-03-17T03:37:21.567Z,4.94
2017-03-17T03:38:31.913Z,5.16
2017-03-17T03:39:42.277Z,5.23
2017-03-17T03:40:52.608Z,5.39
2017-03-17T03:42:02.931Z,5.41
2017-03-17T03:43:13.278Z,5.64
2017-03-17T03:44:23.603Z,5.78
2017-03-17T03:45:33.309Z,5.87
2017-03-17T03:46:43.632Z,6
2017-03-17T03:47:53.339Z,6.17
2017-03-17T03:49:03.671Z,6.28
2017-03-17T03:50:14.003Z,6.46
2017-03-17T03:51:24.021Z,6.57
2017-03-17T03:52:34.050Z,6.78
2017-03-17T03:53:44.617Z,6.83
2017-03-17T03:54:54.935Z,6.97
2017-03-17T03:56:04.954Z,7.01
2017-03-17T03:57:14.961Z,7.08
2017-03-17T03:58:25.291Z,7.22
2017-03-17T03:59:35.631Z,7.27
2017-03-17T04:00:45.959Z,7.4
2017-03-17T04:01:56.278Z,7.44
2017-03-17T04:03:06.622Z,7.48
2017-03-17T04:04:16.960Z,7.51
2017-03-17T04:05:27.001Z,7.63
2017-03-17T04:06:37.323Z,7.68
2017-03-17T04:07:47.361Z,7.59
2017-03-17T04:08:57.699Z,7.63
2017-03-17T04:10:08.033Z,7.7
2017-03-17T04:11:18.357Z,7.73
2017-03-17T04:12:28.691Z,7.77
2017-03-17T04:13:39.027Z,7.71
2017-03-17T04:14:49.352Z,7.8
2017-03-17T04:15:59.679Z,7.71
2017-03-17T04:17:10.008Z,7.74
2017-03-17T04:18:20.346Z,7.71
2017-03-17T04:19:30.058Z,7.73
2017-03-17T04:20:40.090Z,7.75
2017-03-17T04:21:50.411Z,7.86
2017-03-17T04:23:00.747Z,7.88
2017-03-17T04:24:11.081Z,7.78
2017-03-17T04:25:21.097Z,7.83
2017-03-17T04:26:31.104Z,7.89
2017-03-17T04:27:41.436Z,7.88
2017-03-17T04:28:51.471Z,7.88
2017-03-17T04:30:01.835Z,7.88
2017-03-17T04:31:12.158Z,7.82
2017-03-17T04:32:22.481Z,7.86
2017-03-17T04:33:32.829Z,7.91
2017-03-17T04:34:43.183Z,7.95
2017-03-17T04:35:53.203Z,7.95
2017-03-17T04:37:03.533Z,7.95
2017-03-17T04:38:13.565Z,7.89
2017-03-17T04:39:23.586Z,7.89
2017-03-17T04:40:33.595Z,7.89
2017-03-17T04:41:43.925Z,7.92
2017-03-17T04:42:54.263Z,7.96
2017-03-17T04:44:04.271Z,7.91
2017-03-17T04:45:14.625Z,7.93
2017-03-17T04:46:24.644Z,7.89
2017-03-17T04:47:34.978Z,7.75
2017-03-17T04:48:45.315Z,7.85
2017-03-17T04:49:55.654Z,7.77
2017-03-17T04:51:05.678Z,7.73
2017-03-17T04:52:15.379Z,7.74
2017-03-17T04:53:25.405Z,7.7
2017-03-17T04:54:35.734Z,7.73
2017-03-17T04:55:46.070Z,7.7
2017-03-17T04:56:56.083Z,7.7
2017-03-17T04:58:06.419Z,7.73
2017-03-17T04:59:16.754Z,7.68
2017-03-17T05:00:27.091Z,7.7
2017-03-17T05:01:37.110Z,7.7
2017-03-17T05:02:47.442Z,7.75
2017-03-17T05:03:58.008Z,7.73
2017-03-17T05:05:08.354Z,7.77
2017-03-17T05:06:18.675Z,7.67
2017-03-17T05:07:28.700Z,7.64
2017-03-17T05:08:38.723Z,7.59
2017-03-17T05:09:49.045Z,7.58
2017-03-17T05:10:59.044Z,7.63
2017-03-17T05:12:09.374Z,7.61
2017-03-17T05:13:19.729Z,7.59
2017-03-17T05:14:30.069Z,7.59
2017-03-17T05:15:40.110Z,7.58
2017-03-17T05:16:50.129Z,7.64
2017-03-17T05:18:00.466Z,7.68
2017-03-17T05:19:10.802Z,7.68
2017-03-17T05:20:21.118Z,7.71
2017-03-17T05:21:31.139Z,7.7
2017-03-17T05:22:41.501Z,7.74
2017-03-17T05:23:51.837Z,7.74
2017-03-17T05:25:02.169Z,7.73
2017-03-17T05:26:12.181Z,7.82
2017-03-17T05:27:22.511Z,7.86
2017-03-17T05:28:32.838Z,7.83
2017-03-17T05:29:42.858Z,7.92
2017-03-17T05:30:52.876Z,7.85
2017-03-17T05:32:03.210Z,7.92
2017-03-17T05:33:13.463Z,7.95
2017-03-17T05:34:23.506Z,7.93
2017-03-17T05:35:33.852Z,7.89
2017-03-17T05:36:44.170Z,8.01
2017-03-17T05:37:54.520Z,8.09
2017-03-17T05:39:04.864Z,8.09
2017-03-17T05:40:15.200Z,8.13
2017-03-17T05:41:25.531Z,8.1
2017-03-17T05:42:35.241Z,8.1
2017-03-17T05:43:45.266Z,8.14
2017-03-17T05:44:55.614Z,8.16
2017-03-17T05:46:05.939Z,8.31
2017-03-17T05:47:16.281Z,8.29
2017-03-17T05:48:26.587Z,8.35
2017-03-17T05:49:36.925Z,8.42
2017-03-17T05:50:46.955Z,8.39
2017-03-17T05:51:56.972Z,8.52
2017-03-17T05:53:06.983Z,8.49
2017-03-17T05:54:17.323Z,8.54
2017-03-17T05:55:27.660Z,8.53
2017-03-17T05:56:38.010Z,8.64
2017-03-17T05:57:48.352Z,8.65
2017-03-17T05:58:58.394Z,8.77
2017-03-17T06:00:08.750Z,8.77
2017-03-17T06:01:19.102Z,8.86
2017-03-17T06:02:29.454Z,8.98
2017-03-17T06:03:39.803Z,8.95
2017-03-17T06:04:50.142Z,9.05
2017-03-17T06:06:00.483Z,9.11
2017-03-17T06:07:10.506Z,9.2
2017-03-17T06:08:20.853Z,9.29
2017-03-17T06:09:31.191Z,9.39
2017-03-17T06:10:40.925Z,9.38
2017-03-17T06:11:50.971Z,9.55
2017-03-17T06:13:01.309Z,9.59
2017-03-17T06:14:11.071Z,9.55
2017-03-17T06:15:21.108Z,9.64
2017-03-17T06:16:31.456Z,9.72
2017-03-17T06:17:41.828Z,9.82
2017-03-17T06:18:52.176Z,9.85
2017-03-17T06:20:02.528Z,9.93
2017-03-17T06:21:12.892Z,10.02
2017-03-17T06:22:23.228Z,10.13
2017-03-17T06:23:33.570Z,10.17
2017-03-17T06:24:43.602Z,10.29
2017-03-17T06:25:53.932Z,10.41
2017-03-17T06:27:04.270Z,10.39
2017-03-17T06:28:13.987Z,10.54
2017-03-17T06:29:24.300Z,10.61
2017-03-17T06:30:34.325Z,10.65
2017-03-17T06:31:44.668Z,10.87
2017-03-17T06:32:55.007Z,10.8
2017-03-17T06:34:05.340Z,10.9
2017-03-17T06:35:15.376Z,10.85
2017-03-17T06:36:25.692Z,10.98
2017-03-17T06:37:35.725Z,11.06
2017-03-17T06:38:45.764Z,11.12
2017-03-17T06:39:55.789Z,11.23
2017-03-17T06:41:06.130Z,11.09
2017-03-17T06:42:16.452Z,11.26
2017-03-17T06:43:26.792Z,11.21
2017-03-17T06:44:37.137Z,11.31
2017-03-17T06:45:47.175Z,11.39
2017-03-17T06:46:57.521Z,11.39
2017-03-17T06:48:07.535Z,11.43
2017-03-17T06:49:17.887Z,11.49
2017-03-17T06:50:28.213Z,11.53
2017-03-17T06:51:38.541Z,11.53
2017-03-17T06:52:48.873Z,11.68
2017-03-17T06:53:58.886Z,11.67
2017-03-17T06:55:09.218Z,11.71
2017-03-17T06:56:19.557Z,11.88
2017-03-17T06:57:29.910Z,11.94
2017-03-17T06:58:40.260Z,11.85
2017-03-17T06:59:50.298Z,11.95
2017-03-17T07:01:00.315Z,11.88
2017-03-17T07:02:10.652Z,12
2017-03-17T07:03:20.986Z,12.03
2017-03-17T07:04:31.334Z,12.16
2017-03-17T07:05:41.392Z,12.16
2017-03-17T07:06:51.737Z,12.15
2017-03-17T07:08:02.084Z,12.2
2017-03-17T07:09:12.090Z,12.23
2017-03-17T07:10:22.424Z,12.37
2017-03-17T07:11:32.796Z,12.38
2017-03-17T07:12:42.816Z,12.45
2017-03-17T07:13:53.153Z,12.55
2017-03-17T07:15:03.187Z,12.62
2017-03-17T07:16:13.197Z,12.73
2017-03-17T07:17:23.542Z,12.81
2017-03-17T07:18:33.261Z,12.83
2017-03-17T07:19:43.608Z,13.02
2017-03-17T07:20:53.946Z,13.01
2017-03-17T07:22:04.315Z,13.17
2017-03-17T07:23:14.667Z,13.13
2017-03-17T07:24:24.713Z,13.32
2017-03-17T07:25:34.454Z,13.36
2017-03-17T07:26:44.777Z,13.51
2017-03-17T07:27:55.125Z,13.54
2017-03-17T07:29:05.461Z,13.6
2017-03-17T07:30:15.800Z,13.6
2017-03-17T07:31:25.838Z,13.55
2017-03-17T07:32:54.770Z,13.75
2017-03-17T07:34:05.103Z,13.75
2017-03-17T07:35:15.130Z,13.78
2017-03-17T07:36:25.456Z,13.84
2017-03-17T07:37:35.788Z,13.9
2017-03-17T07:38:46.134Z,13.97
2017-03-17T07:39:56.471Z,14.01
2017-03-17T07:41:06.508Z,14.08
2017-03-17T07:42:16.852Z,14.19
2017-03-17T07:43:27.157Z,14.15
2017-03-17T07:44:37.365Z,14.19
2017-03-17T07:45:47.649Z,14.27
2017-03-17T07:46:57.928Z,14.33
2017-03-17T07:48:08.208Z,14.3
2017-03-17T07:49:18.164Z,14.44
2017-03-17T07:50:28.131Z,14.56
2017-03-17T07:51:38.415Z,14.49
2017-03-17T07:52:48.080Z,14.59
2017-03-17T07:53:58.366Z,14.6
2017-03-17T07:55:08.652Z,14.67
2017-03-17T07:56:18.618Z,14.82
2017-03-17T07:57:28.897Z,14.74
2017-03-17T07:58:39.200Z,14.9
2017-03-17T07:59:49.459Z,14.97
2017-03-17T08:00:59.111Z,15.01
2017-03-17T08:02:09.384Z,15.16
2017-03-17T08:03:19.651Z,15.16
2017-03-17T08:04:29.628Z,15.26
2017-03-17T08:05:39.905Z,15.34
2017-03-17T08:06:50.166Z,15.35
2017-03-17T08:08:00.145Z,15.4
2017-03-17T08:09:10.113Z,15.44
2017-03-17T08:10:20.414Z,15.41
2017-03-17T08:11:30.383Z,15.51
2017-03-17T08:12:40.061Z,15.53
2017-03-17T08:13:50.353Z,15.62
2017-03-17T08:15:00.639Z,15.55
2017-03-17T08:16:10.598Z,15.63
2017-03-17T08:17:20.566Z,15.75
2017-03-17T08:18:30.829Z,15.86
2017-03-17T08:19:41.095Z,15.8
2017-03-17T08:20:51.359Z,15.88
2017-03-17T08:22:01.621Z,15.96
2017-03-17T08:23:11.896Z,16.08
2017-03-17T08:24:21.882Z,16.18
2017-03-17T08:25:32.152Z,16.21
2017-03-17T08:26:42.493Z,16.32
2017-03-17T08:27:52.467Z,16.4
2017-03-17T08:29:02.733Z,16.42
2017-03-17T08:30:12.703Z,16.58
2017-03-17T08:31:22.976Z,16.59
2017-03-17T08:32:32.953Z,16.67
2017-03-17T08:33:43.234Z,16.8
2017-03-17T08:34:53.518Z,16.92
2017-03-17T08:36:03.787Z,16.97
2017-03-17T08:37:14.065Z,17.02
2017-03-17T08:38:24.063Z,17.06
2017-03-17T08:39:34.338Z,17.09
2017-03-17T08:40:44.624Z,17.15
2017-03-17T08:41:54.904Z,17.1
2017-03-17T08:43:05.195Z,17.35
2017-03-17T08:44:15.483Z,17.27
2017-03-17T08:45:25.772Z,17.45
2017-03-17T08:46:35.744Z,17.43
2017-03-17T08:47:46.039Z,17.54
2017-03-17T08:48:56.336Z,17.66
2017-03-17T08:50:05.996Z,17.68
2017-03-17T08:51:16.275Z,17.76
2017-03-17T08:52:25.956Z,17.94
2017-03-17T08:53:36.232Z,17.88
2017-03-17T08:54:46.490Z,17.96
2017-03-17T08:55:56.763Z,18.01
2017-03-17T08:57:07.060Z,18.13
2017-03-17T08:58:17.329Z,18.16
2017-03-17T08:59:27.291Z,18.26
2017-03-17T09:00:37.579Z,18.31
2017-03-17T09:01:47.544Z,18.2
2017-03-17T09:02:57.517Z,18.32
2017-03-17T09:04:07.499Z,18.36
2017-03-17T09:05:17.489Z,18.49
2017-03-17T09:06:27.464Z,18.47
2017-03-17T09:07:37.128Z,18.57
2017-03-17T09:08:47.415Z,18.57
2017-03-17T09:09:57.387Z,18.76
2017-03-17T09:11:07.669Z,18.84
2017-03-17T09:12:17.625Z,18.9
2017-03-17T09:13:27.894Z,18.91
2017-03-17T09:14:38.077Z,18.97
2017-03-17T09:15:48.354Z,19.12
2017-03-17T09:16:58.620Z,19.15
2017-03-17T09:18:08.597Z,19.15
2017-03-17T09:19:18.895Z,19.17
2017-03-17T09:20:28.564Z,19.2
2017-03-17T09:21:38.848Z,19.27
2017-03-17T09:22:49.137Z,19.4
2017-03-17T09:23:59.109Z,19.38
2017-03-17T09:25:09.394Z,19.52
2017-03-17T09:26:19.671Z,19.53
2017-03-17T09:27:29.959Z,19.64
2017-03-17T09:28:40.254Z,19.71
2017-03-17T09:29:50.559Z,19.72
2017-03-17T09:31:00.840Z,19.74
2017-03-17T09:32:11.368Z,19.83
2017-03-17T09:33:21.027Z,19.93
2017-03-17T09:34:31.328Z,19.95
2017-03-17T09:35:41.299Z,19.95
2017-03-17T09:36:51.260Z,19.97
2017-03-17T09:38:01.236Z,19.93
2017-03-17T09:39:11.526Z,20.08
2017-03-17T09:40:21.795Z,20.1
2017-03-17T09:41:32.085Z,20.12
2017-03-17T09:42:42.350Z,20.23
2017-03-17T09:43:51.996Z,20.26
2017-03-17T09:45:01.660Z,20.37
2017-03-17T09:46:11.934Z,20.49
2017-03-17T09:47:21.893Z,20.44
2017-03-17T09:48:31.861Z,20.57
2017-03-17T09:49:42.132Z,20.49
2017-03-17T09:50:52.399Z,20.61
2017-03-17T09:52:02.700Z,20.71
2017-03-17T09:53:12.976Z,20.71
2017-03-17T09:54:23.272Z,20.82
2017-03-17T09:55:33.546Z,20.82
2017-03-17T09:56:43.820Z,20.96
2017-03-17T09:57:53.784Z,20.94
2017-03-17T09:59:03.748Z,21.06
2017-03-17T10:00:13.726Z,21.21
2017-03-17T10:01:24.001Z,21.23
2017-03-17T10:02:34.002Z,21.31
2017-03-17T10:03:44.289Z,21.41
2017-03-17T10:04:54.266Z,21.41
2017-03-17T10:06:04.234Z,21.37
2017-03-17T10:07:14.492Z,21.45
2017-03-17T10:08:24.180Z,21.46
2017-03-17T10:09:34.465Z,21.61
2017-03-17T10:10:44.432Z,21.59
2017-03-17T10:11:54.713Z,21.61
2017-03-17T10:13:04.994Z,21.62
2017-03-17T10:14:14.959Z,21.68
2017-03-17T10:15:25.247Z,21.58
2017-03-17T10:16:34.902Z,21.7
2017-03-17T10:17:45.196Z,21.62
2017-03-17T10:18:55.473Z,21.83
2017-03-17T10:20:05.453Z,21.78
2017-03-17T10:21:15.427Z,21.82
2017-03-17T10:22:25.718Z,21.85
2017-03-17T10:23:36.026Z,21.83
2017-03-17T10:24:46.292Z,21.9
2017-03-17T10:25:56.283Z,22
2017-03-17T10:27:06.584Z,21.96
2017-03-17T10:28:16.868Z,22.12
2017-03-17T10:29:26.859Z,21.94
2017-03-17T10:30:37.132Z,21.94
2017-03-17T10:31:47.420Z,21.99
2017-03-17T10:32:57.369Z,22.11
2017-03-17T10:34:07.670Z,22.12
2017-03-17T10:35:17.641Z,22.15
2017-03-17T10:36:27.927Z,22.2
2017-03-17T10:37:37.885Z,22.27
2017-03-17T10:38:48.155Z,22.33
2017-03-17T10:39:58.444Z,22.44
2017-03-17T10:41:08.734Z,22.44
2017-03-17T10:42:19.028Z,22.42
2017-03-17T10:43:28.999Z,22.44
2017-03-17T10:44:38.973Z,22.38
2017-03-17T10:45:49.244Z,22.46
2017-03-17T10:46:59.514Z,22.51
2017-03-17T10:48:09.776Z,22.52
2017-03-17T10:49:20.057Z,22.61
2017-03-17T10:50:30.324Z,22.69
2017-03-17T10:51:40.302Z,22.7
2017-03-17T10:52:50.297Z,22.67
2017-03-17T10:53:59.990Z,22.7
2017-03-17T10:55:09.962Z,22.76
2017-03-17T10:56:20.263Z,22.81
2017-03-17T10:57:30.226Z,23.03
2017-03-17T10:58:40.204Z,22.99
2017-03-17T10:59:50.503Z,23.12
2017-03-17T11:01:00.784Z,23.22
2017-03-17T11:02:11.091Z,23.24
2017-03-17T11:03:21.075Z,23.44
2017-03-17T11:04:31.354Z,23.47
2017-03-17T11:05:41.642Z,23.53
2017-03-17T11:06:51.605Z,23.56
2017-03-17T11:08:01.890Z,23.57
2017-03-17T11:09:12.186Z,23.6
2017-03-17T11:10:22.162Z,23.7
2017-03-17T11:11:32.423Z,23.62
2017-03-17T11:12:42.408Z,23.75
2017-03-17T11:13:52.701Z,23.78
2017-03-17T11:15:02.972Z,23.87
2017-03-17T11:16:13.261Z,23.89
2017-03-17T11:17:23.222Z,23.9
2017-03-17T11:18:33.202Z,23.94
2017-03-17T11:19:43.173Z,23.96
2017-03-17T11:20:53.445Z,24.04
2017-03-17T11:22:03.406Z,24.04
2017-03-17T11:23:13.688Z,23.99
2017-03-17T11:24:23.965Z,24.08
2017-03-17T11:25:33.647Z,24
2017-03-17T11:26:43.918Z,24.19
2017-03-17T11:27:54.188Z,24.27
2017-03-17T11:29:04.486Z,24.32
2017-03-17T11:30:14.756Z,24.44
2017-03-17T11:31:25.049Z,24.33
2017-03-17T11:32:35.331Z,24.32
2017-03-17T11:33:45.318Z,24.3
2017-03-17T11:34:55.612Z,24.36
2017-03-17T11:36:05.889Z,24.48
2017-03-17T11:37:16.228Z,24.46
2017-03-17T11:38:26.192Z,24.3
2017-03-17T11:39:36.467Z,24.3
2017-03-17T11:40:46.435Z,24.34
2017-03-17T11:41:56.734Z,24.37
2017-03-17T11:43:06.696Z,24.44
2017-03-17T11:44:16.999Z,24.58
2017-03-17T11:45:27.265Z,24.66
2017-03-17T11:46:37.243Z,24.69
2017-03-17T11:47:47.515Z,24.82
2017-03-17T11:48:57.797Z,24.82
2017-03-17T11:50:08.136Z,24.8
2017-03-17T11:51:18.418Z,24.86
2017-03-17T11:52:28.699Z,24.77
2017-03-17T11:53:38.714Z,24.71
2017-03-17T11:54:48.744Z,24.55
2017-03-17T11:55:59.271Z,24.39
2017-03-17T11:57:09.585Z,24.44
2017-03-17T11:58:19.889Z,24.58
2017-03-17T11:59:30.184Z,24.74
2017-03-17T12:00:40.516Z,24.94
2017-03-17T12:01:50.478Z,25.04
2017-03-17T12:03:00.148Z,25
2017-03-17T12:04:10.440Z,25.07
2017-03-17T12:05:20.743Z,25.01
2017-03-17T12:06:31.024Z,25
2017-03-17T12:07:41.310Z,25.2
2017-03-17T12:08:51.281Z,25.26
2017-03-17T12:10:01.563Z,25.41
2017-03-17T12:11:11.233Z,25.57
2017-03-17T12:12:21.217Z,25.59
2017-03-17T12:13:31.526Z,25.52
2017-03-17T12:14:41.502Z,25.34
2017-03-17T12:15:51.798Z,25.44
2017-03-17T12:17:02.077Z,25.51
2017-03-17T12:18:12.348Z,25.54
2017-03-17T12:19:22.630Z,25.69
2017-03-17T12:20:32.899Z,25.67
2017-03-17T12:21:43.189Z,25.6
2017-03-17T12:22:53.484Z,25.74
2017-03-17T12:24:03.771Z,25.89
2017-03-17T12:25:14.058Z,25.96
2017-03-17T12:26:24.348Z,26.16
2017-03-17T12:27:34.623Z,26.23
2017-03-17T12:28:44.594Z,26.3
2017-03-17T12:29:54.884Z,26.35
2017-03-17T12:31:05.166Z,26.31
2017-03-17T12:32:15.463Z,26.31
2017-03-17T12:33:25.795Z,26.49
2017-03-17T12:34:36.077Z,26.41
2017-03-17T12:35:46.390Z,26.44
2017-03-17T12:36:56.664Z,26.44
2017-03-17T12:38:06.948Z,26.61
2017-03-17T12:39:17.223Z,26.54
2017-03-17T12:40:27.505Z,26.24
2017-03-17T12:41:37.787Z,25.99
2017-03-17T12:42:48.063Z,26.27
2017-03-17T12:43:58.038Z,26.31
2017-03-17T12:45:08.302Z,26.49
2017-03-17T12:46:18.600Z,26.22
2017-03-17T12:47:28.875Z,25.79
2017-03-17T12:48:38.861Z,25.52
2017-03-17T12:49:49.143Z,25.27
2017-03-17T12:50:59.422Z,25.14
2017-03-17T12:52:09.387Z,24.96
2017-03-17T12:53:19.678Z,24.82
2017-03-17T12:54:29.961Z,24.86
2017-03-17T12:55:40.222Z,24.89
2017-03-17T12:56:50.501Z,25.32
2017-03-17T12:58:00.786Z,25.6
2017-03-17T12:59:11.076Z,25.63
2017-03-17T13:00:21.039Z,25.99
2017-03-17T13:01:31.330Z,26.26
2017-03-17T13:02:41.619Z,26.53
2017-03-17T13:03:51.921Z,26.72
2017-03-17T13:05:01.912Z,26.74
2017-03-17T13:06:12.184Z,26.78
2017-03-17T13:07:22.471Z,26.93
2017-03-17T13:08:32.478Z,27.04
2017-03-17T13:09:42.468Z,27.15
2017-03-17T13:10:52.750Z,27.26
2017-03-17T13:12:02.735Z,27.33
2017-03-17T13:13:13.024Z,27.3
2017-03-17T13:14:23.301Z,27.21
2017-03-17T13:15:32.670Z,27.42
2017-03-17T13:16:42.667Z,27.28
2017-03-17T13:17:52.950Z,27.09
2017-03-17T13:19:03.277Z,27.15
2017-03-17T13:20:13.585Z,27.27
2017-03-17T13:21:23.862Z,27.38
2017-03-17T13:22:34.151Z,27.52
2017-03-17T13:23:43.860Z,27.38
2017-03-17T13:24:54.173Z,27.34
2017-03-17T13:26:04.167Z,27.43
2017-03-17T13:27:14.443Z,27.61
2017-03-17T13:28:24.968Z,27.52
2017-03-17T13:29:34.955Z,27.45
2017-03-17T13:30:44.919Z,27.37
2017-03-17T13:31:54.911Z,27.45
2017-03-17T13:33:05.224Z,27.3
2017-03-17T13:34:15.510Z,27.19
2017-03-17T13:35:25.500Z,27.05
2017-03-17T13:36:35.489Z,26.96
2017-03-17T13:37:45.170Z,26.96
2017-03-17T13:38:55.472Z,26.9
2017-03-17T13:40:05.756Z,26.93
2017-03-17T13:41:16.024Z,26.76
2017-03-17T13:42:26.005Z,26.68
2017-03-17T13:43:36.321Z,26.72
2017-03-17T13:44:46.309Z,26.64
2017-03-17T13:45:56.598Z,26.6
2017-03-17T13:47:06.568Z,26.63
2017-03-17T13:48:16.851Z,26.54
2017-03-17T13:49:27.147Z,26.42
2017-03-17T13:50:37.109Z,26.31
2017-03-17T13:51:47.385Z,26.27
2017-03-17T13:52:57.042Z,26.15
2017-03-17T13:54:07.022Z,25.99
2017-03-17T13:55:17.005Z,25.89
2017-03-17T13:56:27.289Z,25.88
2017-03-17T13:57:37.578Z,25.75
2017-03-17T13:58:47.875Z,25.64
2017-03-17T13:59:58.181Z,25.59
2017-03-17T14:01:08.465Z,25.39
2017-03-17T14:02:18.750Z,25.2
2017-03-17T14:03:28.738Z,25.17
2017-03-17T14:04:38.714Z,25.04
2017-03-17T14:05:48.922Z,24.89
2017-03-17T14:06:58.591Z,24.78
2017-03-17T14:08:08.885Z,24.78
2017-03-17T14:09:19.202Z,24.75
2017-03-17T14:10:29.521Z,24.7
2017-03-17T14:11:39.501Z,24.58
2017-03-17T14:12:49.471Z,24.58
2017-03-17T14:13:59.751Z,24.54
2017-03-17T14:15:10.019Z,24.45
2017-03-17T14:16:20.313Z,24.34
2017-03-17T14:17:30.600Z,24.3
2017-03-17T14:18:40.569Z,24.34
2017-03-17T14:19:50.865Z,24.19
2017-03-17T14:21:01.178Z,24.22
2017-03-17T14:22:11.456Z,24.12
2017-03-17T14:23:21.422Z,24.19
2017-03-17T14:24:31.704Z,24.22
2017-03-17T14:25:41.984Z,24.15
2017-03-17T14:26:52.284Z,24.11
2017-03-17T14:28:02.567Z,24.08
2017-03-17T14:29:12.562Z,24.03
2017-03-17T14:30:22.228Z,24.07
2017-03-17T14:31:32.523Z,24.03
2017-03-17T14:32:42.500Z,23.93
2017-03-17T14:33:52.485Z,23.93
2017-03-17T14:35:02.459Z,23.97
2017-03-17T14:36:12.757Z,23.81
2017-03-17T14:37:23.055Z,23.85
2017-03-17T14:38:33.345Z,23.82
2017-03-17T14:39:43.639Z,23.81
2017-03-17T14:40:53.932Z,23.81
2017-03-17T14:42:03.588Z,23.71
2017-03-17T14:43:13.878Z,23.64
2017-03-17T14:44:24.182Z,23.71
2017-03-17T14:45:34.153Z,23.67
2017-03-17T14:46:44.436Z,23.59
2017-03-17T14:47:53.777Z,23.56
2017-03-17T14:49:03.745Z,23.45
2017-03-17T14:50:13.730Z,23.55
2017-03-17T14:51:23.703Z,23.48
2017-03-17T14:52:33.724Z,23.42
2017-03-17T14:53:44.006Z,23.38
2017-03-17T14:54:53.664Z,23.28
2017-03-17T14:56:03.860Z,23.18
2017-03-17T14:57:14.157Z,23.19
2017-03-17T14:58:24.137Z,23.09
2017-03-17T14:59:34.110Z,22.89
2017-03-17T15:00:44.379Z,22.92
2017-03-17T15:01:54.664Z,23
2017-03-17T15:03:04.974Z,22.92
2017-03-17T15:04:15.305Z,22.89
2017-03-17T15:05:25.603Z,22.85
2017-03-17T15:06:35.594Z,22.88
2017-03-17T15:07:45.919Z,22.81
2017-03-17T15:08:56.219Z,22.79
2017-03-17T15:10:06.518Z,22.82
2017-03-17T15:11:16.491Z,22.75
2017-03-17T15:12:26.782Z,22.7
2017-03-17T15:13:36.455Z,22.67
2017-03-17T15:14:46.437Z,22.67
2017-03-17T15:15:56.719Z,22.61
2017-03-17T15:17:06.694Z,22.7
2017-03-17T15:18:16.668Z,22.63
2017-03-17T15:19:26.958Z,22.63
2017-03-17T15:20:36.624Z,22.61
2017-03-17T15:21:46.912Z,22.55
2017-03-17T15:22:57.207Z,22.52
2017-03-17T15:24:07.494Z,22.52
2017-03-17T15:25:17.791Z,22.59
2017-03-17T15:26:28.084Z,22.55
2017-03-17T15:27:38.379Z,22.6
2017-03-17T15:28:48.683Z,22.63
2017-03-17T15:29:58.972Z,22.66
2017-03-17T15:31:09.252Z,22.71
2017-03-17T15:32:19.558Z,22.7
2017-03-17T15:33:29.847Z,22.67
2017-03-17T15:34:39.829Z,22.7
2017-03-17T15:35:50.140Z,22.67
2017-03-17T15:37:00.114Z,22.69
2017-03-17T15:38:10.122Z,22.7
2017-03-17T15:39:20.107Z,22.67
2017-03-17T15:40:30.089Z,22.63
2017-03-17T15:41:40.369Z,22.67
2017-03-17T15:42:50.384Z,22.57
2017-03-17T15:44:00.741Z,22.69
2017-03-17T15:45:11.100Z,22.69